sensor_id;sensor_type;location;lat;lon;timestamp;P1;durP1;ratioP1;P2;durP2;ratioP2
5493;SDS011;2769;49.864;8.656;2023-05-07T00:01:46;5.43;;;1.93;;
5493;SDS011;2769;49.864;8.656;2023-05-07T00:04:14;2.10;;;1.90;;
5493;SDS011;2769;49.864;8.656;2023-05-07T00:06:42;6.93;;;2.37;;
5493;SDS011;2769;49.864;8.656;2023-05-07T00:09:13;2.63;;;1.70;;
5493;SDS011;2769;49.864;8.656;2023-05-07T00:11:41;2.40;;;2.20;;
5493;SDS011;2769;49.864;8.656;2023-05-07T00:14:10;2.60;;;1.80;;
5493;SDS011;2769;49.864;8.656;2023-05-07T00:16:38;2.77;;;2.50;;
5493;SDS011;2769;49.864;8.656;2023-05-07T00:19:06;2.97;;;2.77;;
5493;SDS011;2769;49.864;8.656;2023-05-07T00:21:34;6.17;;;2.47;;
5493;SDS011;2769;49.864;8.656;2023-05-07T00:24:02;4.30;;;2.40;;
5493;SDS011;2769;49.864;8.656;2023-05-07T00:26:30;2.83;;;2.60;;
5493;SDS011;2769;49.864;8.656;2023-05-07T00:28:58;3.90;;;2.07;;
5493;SDS011;2769;49.864;8.656;2023-05-07T00:31:28;5.97;;;2.17;;
5493;SDS011;2769;49.864;8.656;2023-05-07T00:33:55;2.60;;;2.40;;
5493;SDS011;2769;49.864;8.656;2023-05-07T00:36:23;2.83;;;2.63;;
5493;SDS011;2769;49.864;8.656;2023-05-07T00:38:53;1.90;;;1.80;;
5493;SDS011;2769;49.864;8.656;2023-05-07T00:41:21;3.03;;;2.80;;
5493;SDS011;2769;49.864;8.656;2023-05-07T00:43:52;4.53;;;2.30;;
5493;SDS011;2769;49.864;8.656;2023-05-07T00:46:20;2.60;;;2.40;;
5493;SDS011;2769;49.864;8.656;2023-05-07T00:48:50;2.80;;;2.60;;
5493;SDS011;2769;49.864;8.656;2023-05-07T00:51:18;3.07;;;2.80;;
5493;SDS011;2769;49.864;8.656;2023-05-07T00:53:46;2.87;;;2.67;;
5493;SDS011;2769;49.864;8.656;2023-05-07T00:56:14;3.90;;;2.87;;
5493;SDS011;2769;49.864;8.656;2023-05-07T00:58:42;3.03;;;2.83;;
5493;SDS011;2769;49.864;8.656;2023-05-07T01:01:10;2.70;;;2.50;;
5493;SDS011;2769;49.864;8.656;2023-05-07T01:03:38;2.90;;;2.40;;
5493;SDS011;2769;49.864;8.656;2023-05-07T01:06:07;8.13;;;2.63;;
5493;SDS011;2769;49.864;8.656;2023-05-07T01:08:39;4.90;;;2.70;;
5493;SDS011;2769;49.864;8.656;2023-05-07T01:11:08;3.10;;;2.83;;
5493;SDS011;2769;49.864;8.656;2023-05-07T01:13:36;2.70;;;2.30;;
5493;SDS011;2769;49.864;8.656;2023-05-07T01:16:05;3.73;;;2.80;;
5493;SDS011;2769;49.864;8.656;2023-05-07T01:18:34;3.87;;;2.73;;
5493;SDS011;2769;49.864;8.656;2023-05-07T01:21:02;2.80;;;2.60;;
5493;SDS011;2769;49.864;8.656;2023-05-07T01:23:33;3.00;;;2.77;;
5493;SDS011;2769;49.864;8.656;2023-05-07T01:26:02;4.23;;;2.80;;
5493;SDS011;2769;49.864;8.656;2023-05-07T01:28:31;2.83;;;2.70;;
5493;SDS011;2769;49.864;8.656;2023-05-07T01:31:01;6.50;;;3.03;;
5493;SDS011;2769;49.864;8.656;2023-05-07T01:33:31;3.10;;;2.60;;
5493;SDS011;2769;49.864;8.656;2023-05-07T01:36:01;3.90;;;2.90;;
5493;SDS011;2769;49.864;8.656;2023-05-07T01:38:34;3.80;;;2.83;;
5493;SDS011;2769;49.864;8.656;2023-05-07T01:41:02;3.73;;;2.63;;
5493;SDS011;2769;49.864;8.656;2023-05-07T01:43:31;2.77;;;2.60;;
5493;SDS011;2769;49.864;8.656;2023-05-07T01:45:59;2.73;;;2.53;;
5493;SDS011;2769;49.864;8.656;2023-05-07T01:48:27;3.53;;;3.10;;
5493;SDS011;2769;49.864;8.656;2023-05-07T01:50:56;4.27;;;2.80;;
5493;SDS011;2769;49.864;8.656;2023-05-07T01:53:25;5.07;;;3.10;;
5493;SDS011;2769;49.864;8.656;2023-05-07T01:55:55;5.10;;;2.80;;
5493;SDS011;2769;49.864;8.656;2023-05-07T01:58:24;4.80;;;3.00;;
5493;SDS011;2769;49.864;8.656;2023-05-07T02:00:51;4.30;;;2.90;;
5493;SDS011;2769;49.864;8.656;2023-05-07T02:03:19;3.30;;;3.00;;
5493;SDS011;2769;49.864;8.656;2023-05-07T02:05:58;4.17;;;3.00;;
5493;SDS011;2769;49.864;8.656;2023-05-07T02:08:30;5.57;;;3.00;;
5493;SDS011;2769;49.864;8.656;2023-05-07T02:11:00;4.40;;;3.40;;
5493;SDS011;2769;49.864;8.656;2023-05-07T02:13:30;3.87;;;3.57;;
5493;SDS011;2769;49.864;8.656;2023-05-07T02:15:59;3.17;;;2.97;;
5493;SDS011;2769;49.864;8.656;2023-05-07T02:18:27;5.60;;;2.90;;
5493;SDS011;2769;49.864;8.656;2023-05-07T02:20:55;3.90;;;3.50;;
5493;SDS011;2769;49.864;8.656;2023-05-07T02:23:23;3.63;;;2.93;;
5493;SDS011;2769;49.864;8.656;2023-05-07T02:25:51;3.40;;;3.10;;
5493;SDS011;2769;49.864;8.656;2023-05-07T02:28:20;3.33;;;3.13;;
5493;SDS011;2769;49.864;8.656;2023-05-07T02:30:58;5.87;;;3.30;;
5493;SDS011;2769;49.864;8.656;2023-05-07T02:33:28;3.37;;;3.17;;
5493;SDS011;2769;49.864;8.656;2023-05-07T02:36:04;9.83;;;3.57;;
5493;SDS011;2769;49.864;8.656;2023-05-07T02:38:34;3.60;;;3.30;;
5493;SDS011;2769;49.864;8.656;2023-05-07T02:41:02;5.17;;;3.27;;
5493;SDS011;2769;49.864;8.656;2023-05-07T02:43:33;3.83;;;3.40;;
5493;SDS011;2769;49.864;8.656;2023-05-07T02:46:01;5.10;;;3.33;;
5493;SDS011;2769;49.864;8.656;2023-05-07T02:48:30;5.00;;;3.87;;
5493;SDS011;2769;49.864;8.656;2023-05-07T02:50:59;3.47;;;3.27;;
5493;SDS011;2769;49.864;8.656;2023-05-07T02:53:27;3.70;;;3.40;;
5493;SDS011;2769;49.864;8.656;2023-05-07T02:55:55;3.27;;;3.03;;
5493;SDS011;2769;49.864;8.656;2023-05-07T02:58:25;3.03;;;2.83;;
5493;SDS011;2769;49.864;8.656;2023-05-07T03:00:54;3.17;;;2.87;;
5493;SDS011;2769;49.864;8.656;2023-05-07T03:03:39;2.53;;;2.43;;
5493;SDS011;2769;49.864;8.656;2023-05-07T03:06:07;5.90;;;2.87;;
5493;SDS011;2769;49.864;8.656;2023-05-07T03:08:35;3.30;;;2.57;;
5493;SDS011;2769;49.864;8.656;2023-05-07T03:11:03;2.63;;;2.47;;
5493;SDS011;2769;49.864;8.656;2023-05-07T03:13:31;2.70;;;2.50;;
5493;SDS011;2769;49.864;8.656;2023-05-07T03:16:01;2.97;;;2.30;;
5493;SDS011;2769;49.864;8.656;2023-05-07T03:18:29;2.20;;;2.10;;
5493;SDS011;2769;49.864;8.656;2023-05-07T03:20:57;2.37;;;2.20;;
5493;SDS011;2769;49.864;8.656;2023-05-07T03:23:28;4.57;;;2.10;;
5493;SDS011;2769;49.864;8.656;2023-05-07T03:25:56;2.20;;;2.10;;
5493;SDS011;2769;49.864;8.656;2023-05-07T03:28:25;2.87;;;2.20;;
5493;SDS011;2769;49.864;8.656;2023-05-07T03:30:57;3.83;;;2.00;;
5493;SDS011;2769;49.864;8.656;2023-05-07T03:33:27;2.30;;;2.20;;
5493;SDS011;2769;49.864;8.656;2023-05-07T03:35:55;2.43;;;2.33;;
5493;SDS011;2769;49.864;8.656;2023-05-07T03:38:25;5.23;;;2.27;;
5493;SDS011;2769;49.864;8.656;2023-05-07T03:40:53;4.33;;;2.03;;
5493;SDS011;2769;49.864;8.656;2023-05-07T03:43:24;2.07;;;1.97;;
5493;SDS011;2769;49.864;8.656;2023-05-07T03:46:00;2.40;;;2.30;;
5493;SDS011;2769;49.864;8.656;2023-05-07T03:48:29;2.50;;;2.40;;
5493;SDS011;2769;49.864;8.656;2023-05-07T03:50:58;3.53;;;2.30;;
5493;SDS011;2769;49.864;8.656;2023-05-07T03:53:30;2.70;;;2.00;;
5493;SDS011;2769;49.864;8.656;2023-05-07T03:55:58;2.40;;;2.30;;
5493;SDS011;2769;49.864;8.656;2023-05-07T03:58:30;2.37;;;2.17;;
5493;SDS011;2769;49.864;8.656;2023-05-07T04:01:03;2.40;;;2.30;;
5493;SDS011;2769;49.864;8.656;2023-05-07T04:03:32;2.30;;;2.20;;
5493;SDS011;2769;49.864;8.656;2023-05-07T04:06:00;2.20;;;2.10;;
5493;SDS011;2769;49.864;8.656;2023-05-07T04:08:30;2.77;;;2.27;;
5493;SDS011;2769;49.864;8.656;2023-05-07T04:10:58;2.27;;;2.00;;
5493;SDS011;2769;49.864;8.656;2023-05-07T04:13:30;2.30;;;2.10;;
5493;SDS011;2769;49.864;8.656;2023-05-07T04:16:00;2.27;;;2.17;;
5493;SDS011;2769;49.864;8.656;2023-05-07T04:18:29;3.17;;;2.70;;
5493;SDS011;2769;49.864;8.656;2023-05-07T04:20:58;3.00;;;2.23;;
5493;SDS011;2769;49.864;8.656;2023-05-07T04:23:26;3.57;;;2.00;;
5493;SDS011;2769;49.864;8.656;2023-05-07T04:25:57;2.50;;;2.40;;
5493;SDS011;2769;49.864;8.656;2023-05-07T04:28:35;2.50;;;2.30;;
5493;SDS011;2769;49.864;8.656;2023-05-07T04:31:03;2.80;;;2.60;;
5493;SDS011;2769;49.864;8.656;2023-05-07T04:33:33;4.77;;;2.50;;
5493;SDS011;2769;49.864;8.656;2023-05-07T04:36:04;3.90;;;2.57;;
5493;SDS011;2769;49.864;8.656;2023-05-07T04:38:38;9.30;;;2.90;;
5493;SDS011;2769;49.864;8.656;2023-05-07T04:41:08;3.37;;;2.67;;
5493;SDS011;2769;49.864;8.656;2023-05-07T04:43:39;2.70;;;2.60;;
5493;SDS011;2769;49.864;8.656;2023-05-07T04:46:09;2.57;;;2.47;;
5493;SDS011;2769;49.864;8.656;2023-05-07T04:48:37;2.90;;;2.70;;
5493;SDS011;2769;49.864;8.656;2023-05-07T04:51:09;3.63;;;2.83;;
5493;SDS011;2769;49.864;8.656;2023-05-07T04:53:37;7.70;;;2.63;;
5493;SDS011;2769;49.864;8.656;2023-05-07T04:56:05;2.33;;;2.23;;
5493;SDS011;2769;49.864;8.656;2023-05-07T04:58:38;2.83;;;2.73;;
5493;SDS011;2769;49.864;8.656;2023-05-07T05:01:07;2.50;;;2.30;;
5493;SDS011;2769;49.864;8.656;2023-05-07T05:03:36;3.20;;;2.97;;
5493;SDS011;2769;49.864;8.656;2023-05-07T05:06:08;3.23;;;2.20;;
5493;SDS011;2769;49.864;8.656;2023-05-07T05:08:36;2.60;;;2.40;;
5493;SDS011;2769;49.864;8.656;2023-05-07T05:11:04;4.80;;;2.37;;
5493;SDS011;2769;49.864;8.656;2023-05-07T05:13:34;4.23;;;2.53;;
5493;SDS011;2769;49.864;8.656;2023-05-07T05:16:09;2.47;;;2.27;;
5493;SDS011;2769;49.864;8.656;2023-05-07T05:18:38;2.30;;;2.20;;
5493;SDS011;2769;49.864;8.656;2023-05-07T05:21:08;3.90;;;3.00;;
5493;SDS011;2769;49.864;8.656;2023-05-07T05:23:37;2.80;;;2.60;;
5493;SDS011;2769;49.864;8.656;2023-05-07T05:26:05;3.13;;;2.83;;
5493;SDS011;2769;49.864;8.656;2023-05-07T05:28:33;2.87;;;2.60;;
5493;SDS011;2769;49.864;8.656;2023-05-07T05:31:02;2.33;;;2.23;;
5493;SDS011;2769;49.864;8.656;2023-05-07T05:33:33;2.33;;;2.20;;
5493;SDS011;2769;49.864;8.656;2023-05-07T05:36:04;6.63;;;2.53;;
5493;SDS011;2769;49.864;8.656;2023-05-07T05:38:34;2.63;;;2.43;;
5493;SDS011;2769;49.864;8.656;2023-05-07T05:41:02;2.70;;;2.50;;
5493;SDS011;2769;49.864;8.656;2023-05-07T05:43:31;4.50;;;2.40;;
5493;SDS011;2769;49.864;8.656;2023-05-07T05:45:59;2.10;;;2.00;;
5493;SDS011;2769;49.864;8.656;2023-05-07T05:48:28;2.80;;;2.50;;
5493;SDS011;2769;49.864;8.656;2023-05-07T05:50:58;3.00;;;2.20;;
5493;SDS011;2769;49.864;8.656;2023-05-07T05:53:26;2.00;;;1.90;;
5493;SDS011;2769;49.864;8.656;2023-05-07T05:55:55;2.50;;;2.30;;
5493;SDS011;2769;49.864;8.656;2023-05-07T05:58:23;2.20;;;2.10;;
5493;SDS011;2769;49.864;8.656;2023-05-07T06:00:56;2.67;;;2.13;;
5493;SDS011;2769;49.864;8.656;2023-05-07T06:03:26;4.60;;;2.50;;
5493;SDS011;2769;49.864;8.656;2023-05-07T06:05:57;4.50;;;2.13;;
5493;SDS011;2769;49.864;8.656;2023-05-07T06:08:28;2.70;;;2.50;;
5493;SDS011;2769;49.864;8.656;2023-05-07T06:10:58;3.10;;;2.80;;
5493;SDS011;2769;49.864;8.656;2023-05-07T06:13:29;2.93;;;2.60;;
5493;SDS011;2769;49.864;8.656;2023-05-07T06:15:56;2.70;;;2.50;;
5493;SDS011;2769;49.864;8.656;2023-05-07T06:18:24;3.17;;;2.90;;
5493;SDS011;2769;49.864;8.656;2023-05-07T06:20:53;2.47;;;2.37;;
5493;SDS011;2769;49.864;8.656;2023-05-07T06:23:27;4.63;;;3.03;;
5493;SDS011;2769;49.864;8.656;2023-05-07T06:25:55;3.03;;;2.83;;
5493;SDS011;2769;49.864;8.656;2023-05-07T06:28:30;3.20;;;3.00;;
5493;SDS011;2769;49.864;8.656;2023-05-07T06:31:10;2.63;;;2.53;;
5493;SDS011;2769;49.864;8.656;2023-05-07T06:33:40;3.37;;;3.07;;
5493;SDS011;2769;49.864;8.656;2023-05-07T06:36:08;4.80;;;2.70;;
5493;SDS011;2769;49.864;8.656;2023-05-07T06:38:38;3.80;;;2.33;;
5493;SDS011;2769;49.864;8.656;2023-05-07T06:41:06;2.80;;;2.57;;
5493;SDS011;2769;49.864;8.656;2023-05-07T06:43:38;2.73;;;2.60;;
5493;SDS011;2769;49.864;8.656;2023-05-07T06:46:23;2.50;;;2.30;;
5493;SDS011;2769;49.864;8.656;2023-05-07T06:48:51;3.00;;;2.90;;
5493;SDS011;2769;49.864;8.656;2023-05-07T06:51:19;4.97;;;2.77;;
5493;SDS011;2769;49.864;8.656;2023-05-07T06:53:48;2.43;;;2.33;;
5493;SDS011;2769;49.864;8.656;2023-05-07T06:56:16;3.80;;;2.67;;
5493;SDS011;2769;49.864;8.656;2023-05-07T06:58:45;2.70;;;2.50;;
5493;SDS011;2769;49.864;8.656;2023-05-07T07:01:13;3.13;;;2.77;;
5493;SDS011;2769;49.864;8.656;2023-05-07T07:03:43;2.90;;;2.70;;
5493;SDS011;2769;49.864;8.656;2023-05-07T07:06:11;3.70;;;3.30;;
5493;SDS011;2769;49.864;8.656;2023-05-07T07:08:39;3.87;;;2.80;;
5493;SDS011;2769;49.864;8.656;2023-05-07T07:11:07;2.80;;;2.70;;
5493;SDS011;2769;49.864;8.656;2023-05-07T07:13:37;3.30;;;3.10;;
5493;SDS011;2769;49.864;8.656;2023-05-07T07:16:08;3.03;;;2.83;;
5493;SDS011;2769;49.864;8.656;2023-05-07T07:18:37;2.83;;;2.53;;
5493;SDS011;2769;49.864;8.656;2023-05-07T07:21:07;3.17;;;2.87;;
5493;SDS011;2769;49.864;8.656;2023-05-07T07:23:35;2.90;;;2.70;;
5493;SDS011;2769;49.864;8.656;2023-05-07T07:26:03;3.10;;;2.80;;
5493;SDS011;2769;49.864;8.656;2023-05-07T07:28:31;2.93;;;2.70;;
5493;SDS011;2769;49.864;8.656;2023-05-07T07:30:58;3.33;;;3.03;;
5493;SDS011;2769;49.864;8.656;2023-05-07T07:33:29;3.50;;;2.83;;
5493;SDS011;2769;49.864;8.656;2023-05-07T07:35:57;3.00;;;2.87;;
5493;SDS011;2769;49.864;8.656;2023-05-07T07:38:25;2.70;;;2.50;;
5493;SDS011;2769;49.864;8.656;2023-05-07T07:40:53;3.17;;;2.97;;
5493;SDS011;2769;49.864;8.656;2023-05-07T07:43:22;3.10;;;2.90;;
5493;SDS011;2769;49.864;8.656;2023-05-07T07:45:50;4.20;;;3.03;;
5493;SDS011;2769;49.864;8.656;2023-05-07T07:48:19;3.67;;;3.37;;
5493;SDS011;2769;49.864;8.656;2023-05-07T07:50:49;4.30;;;3.10;;
5493;SDS011;2769;49.864;8.656;2023-05-07T07:53:18;3.30;;;3.10;;
5493;SDS011;2769;49.864;8.656;2023-05-07T07:55:47;5.40;;;3.00;;
5493;SDS011;2769;49.864;8.656;2023-05-07T07:58:18;3.70;;;3.40;;
5493;SDS011;2769;49.864;8.656;2023-05-07T08:00:46;3.67;;;3.10;;
5493;SDS011;2769;49.864;8.656;2023-05-07T08:03:15;3.40;;;3.03;;
5493;SDS011;2769;49.864;8.656;2023-05-07T08:05:47;3.13;;;2.93;;
5493;SDS011;2769;49.864;8.656;2023-05-07T08:08:18;13.27;;;3.83;;
5493;SDS011;2769;49.864;8.656;2023-05-07T08:10:46;5.07;;;4.50;;
5493;SDS011;2769;49.864;8.656;2023-05-07T08:13:23;3.30;;;3.10;;
5493;SDS011;2769;49.864;8.656;2023-05-07T08:15:52;4.57;;;3.40;;
5493;SDS011;2769;49.864;8.656;2023-05-07T08:18:20;5.03;;;3.63;;
5493;SDS011;2769;49.864;8.656;2023-05-07T08:20:51;3.57;;;3.23;;
5493;SDS011;2769;49.864;8.656;2023-05-07T08:23:28;3.30;;;3.10;;
5493;SDS011;2769;49.864;8.656;2023-05-07T08:25:59;4.10;;;3.73;;
5493;SDS011;2769;49.864;8.656;2023-05-07T08:28:31;5.33;;;3.20;;
5493;SDS011;2769;49.864;8.656;2023-05-07T08:31:02;3.63;;;3.43;;
5493;SDS011;2769;49.864;8.656;2023-05-07T08:33:35;3.40;;;3.20;;
5493;SDS011;2769;49.864;8.656;2023-05-07T08:36:03;3.37;;;3.17;;
5493;SDS011;2769;49.864;8.656;2023-05-07T08:38:34;3.67;;;3.47;;
5493;SDS011;2769;49.864;8.656;2023-05-07T08:41:02;3.80;;;3.60;;
5493;SDS011;2769;49.864;8.656;2023-05-07T08:43:30;3.10;;;2.90;;
5493;SDS011;2769;49.864;8.656;2023-05-07T08:46:00;3.50;;;3.30;;
5493;SDS011;2769;49.864;8.656;2023-05-07T08:48:33;5.03;;;3.67;;
5493;SDS011;2769;49.864;8.656;2023-05-07T08:51:11;3.20;;;2.90;;
5493;SDS011;2769;49.864;8.656;2023-05-07T08:53:41;3.70;;;3.40;;
5493;SDS011;2769;49.864;8.656;2023-05-07T08:56:13;4.23;;;3.83;;
5493;SDS011;2769;49.864;8.656;2023-05-07T08:58:42;3.40;;;3.20;;
5493;SDS011;2769;49.864;8.656;2023-05-07T09:01:12;4.00;;;3.40;;
5493;SDS011;2769;49.864;8.656;2023-05-07T09:03:43;3.97;;;3.67;;
5493;SDS011;2769;49.864;8.656;2023-05-07T09:06:13;3.27;;;3.07;;
5493;SDS011;2769;49.864;8.656;2023-05-07T09:08:43;6.30;;;3.43;;
5493;SDS011;2769;49.864;8.656;2023-05-07T09:11:19;4.10;;;3.50;;
5493;SDS011;2769;49.864;8.656;2023-05-07T09:13:49;2.97;;;2.77;;
5493;SDS011;2769;49.864;8.656;2023-05-07T09:16:21;3.77;;;3.47;;
5493;SDS011;2769;49.864;8.656;2023-05-07T09:18:51;3.53;;;3.30;;
5493;SDS011;2769;49.864;8.656;2023-05-07T09:21:21;3.97;;;3.60;;
5493;SDS011;2769;49.864;8.656;2023-05-07T09:23:53;3.57;;;3.23;;
5493;SDS011;2769;49.864;8.656;2023-05-07T09:26:29;4.37;;;4.00;;
5493;SDS011;2769;49.864;8.656;2023-05-07T09:28:57;5.27;;;4.27;;
5493;SDS011;2769;49.864;8.656;2023-05-07T09:31:25;3.70;;;3.50;;
5493;SDS011;2769;49.864;8.656;2023-05-07T09:33:54;3.60;;;3.30;;
5493;SDS011;2769;49.864;8.656;2023-05-07T09:36:26;3.67;;;3.47;;
5493;SDS011;2769;49.864;8.656;2023-05-07T09:38:58;3.33;;;3.23;;
5493;SDS011;2769;49.864;8.656;2023-05-07T09:41:27;3.97;;;3.57;;
5493;SDS011;2769;49.864;8.656;2023-05-07T09:44:05;4.47;;;4.07;;
5493;SDS011;2769;49.864;8.656;2023-05-07T09:46:42;4.23;;;3.20;;
5493;SDS011;2769;49.864;8.656;2023-05-07T09:49:20;3.47;;;3.17;;
5493;SDS011;2769;49.864;8.656;2023-05-07T09:51:54;3.10;;;3.00;;
5493;SDS011;2769;49.864;8.656;2023-05-07T09:54:26;3.63;;;3.40;;
5493;SDS011;2769;49.864;8.656;2023-05-07T09:56:56;3.90;;;3.57;;
5493;SDS011;2769;49.864;8.656;2023-05-07T09:59:26;3.33;;;3.20;;
5493;SDS011;2769;49.864;8.656;2023-05-07T10:01:58;3.80;;;3.43;;
5493;SDS011;2769;49.864;8.656;2023-05-07T10:04:32;4.00;;;3.70;;
5493;SDS011;2769;49.864;8.656;2023-05-07T10:07:02;3.47;;;3.20;;
5493;SDS011;2769;49.864;8.656;2023-05-07T10:09:33;3.60;;;3.30;;
5493;SDS011;2769;49.864;8.656;2023-05-07T10:12:06;4.40;;;3.57;;
5493;SDS011;2769;49.864;8.656;2023-05-07T10:14:35;3.70;;;3.40;;
5493;SDS011;2769;49.864;8.656;2023-05-07T10:17:03;3.90;;;3.60;;
5493;SDS011;2769;49.864;8.656;2023-05-07T10:19:31;4.00;;;3.80;;
5493;SDS011;2769;49.864;8.656;2023-05-07T10:22:01;3.80;;;3.50;;
5493;SDS011;2769;49.864;8.656;2023-05-07T10:24:39;3.90;;;3.57;;
5493;SDS011;2769;49.864;8.656;2023-05-07T10:27:12;3.77;;;3.30;;
5493;SDS011;2769;49.864;8.656;2023-05-07T10:29:45;4.00;;;3.07;;
5493;SDS011;2769;49.864;8.656;2023-05-07T10:32:28;3.73;;;3.43;;
5493;SDS011;2769;49.864;8.656;2023-05-07T10:35:02;3.37;;;3.07;;
5493;SDS011;2769;49.864;8.656;2023-05-07T10:37:33;3.37;;;3.17;;
5493;SDS011;2769;49.864;8.656;2023-05-07T10:40:03;3.20;;;2.70;;
5493;SDS011;2769;49.864;8.656;2023-05-07T10:42:34;3.20;;;2.90;;
5493;SDS011;2769;49.864;8.656;2023-05-07T10:45:11;3.03;;;2.80;;
5493;SDS011;2769;49.864;8.656;2023-05-07T10:51:18;3.00;;;2.90;;
5493;SDS011;2769;49.864;8.656;2023-05-07T10:53:54;3.20;;;3.00;;
5493;SDS011;2769;49.864;8.656;2023-05-07T10:56:57;3.13;;;2.73;;
5493;SDS011;2769;49.864;8.656;2023-05-07T11:00:40;3.37;;;3.00;;
5493;SDS011;2769;49.864;8.656;2023-05-07T11:03:13;3.20;;;3.00;;
5493;SDS011;2769;49.864;8.656;2023-05-07T11:05:47;3.47;;;2.83;;
5493;SDS011;2769;49.864;8.656;2023-05-07T11:08:53;2.63;;;2.43;;
5493;SDS011;2769;49.864;8.656;2023-05-07T11:11:45;2.13;;;1.97;;
5493;SDS011;2769;49.864;8.656;2023-05-07T11:14:46;2.37;;;2.17;;
5493;SDS011;2769;49.864;8.656;2023-05-07T11:17:21;2.60;;;2.50;;
5493;SDS011;2769;49.864;8.656;2023-05-07T11:20:01;2.60;;;2.40;;
5493;SDS011;2769;49.864;8.656;2023-05-07T11:22:47;2.27;;;2.17;;
5493;SDS011;2769;49.864;8.656;2023-05-07T11:25:23;3.20;;;2.30;;
5493;SDS011;2769;49.864;8.656;2023-05-07T11:28:03;2.10;;;2.00;;
5493;SDS011;2769;49.864;8.656;2023-05-07T11:30:34;2.93;;;2.43;;
5493;SDS011;2769;49.864;8.656;2023-05-07T11:33:05;2.50;;;2.40;;
5493;SDS011;2769;49.864;8.656;2023-05-07T11:35:33;2.60;;;2.50;;
5493;SDS011;2769;49.864;8.656;2023-05-07T11:38:04;2.80;;;2.70;;
5493;SDS011;2769;49.864;8.656;2023-05-07T11:40:34;2.40;;;2.30;;
5493;SDS011;2769;49.864;8.656;2023-05-07T11:43:09;2.67;;;2.47;;
5493;SDS011;2769;49.864;8.656;2023-05-07T11:45:39;2.57;;;2.37;;
5493;SDS011;2769;49.864;8.656;2023-05-07T11:48:07;3.37;;;2.10;;
5493;SDS011;2769;49.864;8.656;2023-05-07T11:50:35;2.70;;;2.20;;
5493;SDS011;2769;49.864;8.656;2023-05-07T11:53:07;3.80;;;2.10;;
5493;SDS011;2769;49.864;8.656;2023-05-07T11:55:35;2.10;;;2.00;;
5493;SDS011;2769;49.864;8.656;2023-05-07T11:58:02;2.30;;;2.20;;
5493;SDS011;2769;49.864;8.656;2023-05-07T12:00:30;3.20;;;2.20;;
5493;SDS011;2769;49.864;8.656;2023-05-07T12:03:03;2.63;;;2.43;;
5493;SDS011;2769;49.864;8.656;2023-05-07T12:05:32;2.20;;;2.10;;
5493;SDS011;2769;49.864;8.656;2023-05-07T12:08:00;2.50;;;1.77;;
5493;SDS011;2769;49.864;8.656;2023-05-07T12:10:28;2.30;;;2.20;;
5493;SDS011;2769;49.864;8.656;2023-05-07T12:12:55;3.60;;;2.00;;
5493;SDS011;2769;49.864;8.656;2023-05-07T12:15:23;2.40;;;2.20;;
5493;SDS011;2769;49.864;8.656;2023-05-07T12:17:55;2.10;;;1.90;;
5493;SDS011;2769;49.864;8.656;2023-05-07T12:20:24;1.63;;;1.63;;
5493;SDS011;2769;49.864;8.656;2023-05-07T12:22:52;1.80;;;1.80;;
5493;SDS011;2769;49.864;8.656;2023-05-07T12:25:20;2.83;;;1.60;;
5493;SDS011;2769;49.864;8.656;2023-05-07T12:27:51;3.53;;;1.87;;
5493;SDS011;2769;49.864;8.656;2023-05-07T12:30:19;2.30;;;2.20;;
5493;SDS011;2769;49.864;8.656;2023-05-07T12:32:47;2.27;;;1.70;;
5493;SDS011;2769;49.864;8.656;2023-05-07T12:35:27;2.03;;;1.93;;
5493;SDS011;2769;49.864;8.656;2023-05-07T12:37:55;2.00;;;1.90;;
5493;SDS011;2769;49.864;8.656;2023-05-07T12:40:34;2.03;;;1.90;;
5493;SDS011;2769;49.864;8.656;2023-05-07T12:43:06;1.70;;;1.60;;
5493;SDS011;2769;49.864;8.656;2023-05-07T12:45:37;2.60;;;1.50;;
5493;SDS011;2769;49.864;8.656;2023-05-07T12:48:06;1.73;;;1.63;;
5493;SDS011;2769;49.864;8.656;2023-05-07T12:50:35;1.97;;;1.87;;
5493;SDS011;2769;49.864;8.656;2023-05-07T12:53:03;1.40;;;1.40;;
5493;SDS011;2769;49.864;8.656;2023-05-07T12:55:34;2.97;;;1.87;;
5493;SDS011;2769;49.864;8.656;2023-05-07T12:58:08;1.90;;;1.80;;
5493;SDS011;2769;49.864;8.656;2023-05-07T13:00:36;1.70;;;1.40;;
5493;SDS011;2769;49.864;8.656;2023-05-07T13:03:04;2.43;;;1.77;;
5493;SDS011;2769;49.864;8.656;2023-05-07T13:05:32;1.87;;;1.73;;
5493;SDS011;2769;49.864;8.656;2023-05-07T13:08:02;5.63;;;1.80;;
5493;SDS011;2769;49.864;8.656;2023-05-07T13:10:30;1.70;;;1.70;;
5493;SDS011;2769;49.864;8.656;2023-05-07T13:12:59;1.70;;;1.60;;
5493;SDS011;2769;49.864;8.656;2023-05-07T13:15:27;2.00;;;1.90;;
5493;SDS011;2769;49.864;8.656;2023-05-07T13:17:54;1.80;;;1.70;;
5493;SDS011;2769;49.864;8.656;2023-05-07T13:20:22;1.77;;;1.67;;
5493;SDS011;2769;49.864;8.656;2023-05-07T13:22:51;1.90;;;1.80;;
5493;SDS011;2769;49.864;8.656;2023-05-07T13:25:20;3.13;;;2.00;;
5493;SDS011;2769;49.864;8.656;2023-05-07T13:27:48;2.37;;;2.17;;
5493;SDS011;2769;49.864;8.656;2023-05-07T13:30:32;4.40;;;1.83;;
5493;SDS011;2769;49.864;8.656;2023-05-07T13:33:00;2.20;;;2.07;;
5493;SDS011;2769;49.864;8.656;2023-05-07T13:35:28;2.23;;;2.13;;
5493;SDS011;2769;49.864;8.656;2023-05-07T13:37:56;1.80;;;1.70;;
5493;SDS011;2769;49.864;8.656;2023-05-07T13:40:25;1.90;;;1.70;;
5493;SDS011;2769;49.864;8.656;2023-05-07T13:42:53;4.90;;;1.80;;
5493;SDS011;2769;49.864;8.656;2023-05-07T13:45:24;2.57;;;1.70;;
5493;SDS011;2769;49.864;8.656;2023-05-07T13:47:53;2.00;;;1.90;;
5493;SDS011;2769;49.864;8.656;2023-05-07T13:50:21;2.97;;;1.50;;
5493;SDS011;2769;49.864;8.656;2023-05-07T13:52:49;1.73;;;1.73;;
5493;SDS011;2769;49.864;8.656;2023-05-07T13:55:18;1.70;;;1.60;;
5493;SDS011;2769;49.864;8.656;2023-05-07T13:57:47;2.13;;;1.80;;
5493;SDS011;2769;49.864;8.656;2023-05-07T14:00:15;3.63;;;1.80;;
5493;SDS011;2769;49.864;8.656;2023-05-07T14:02:43;2.47;;;1.60;;
5493;SDS011;2769;49.864;8.656;2023-05-07T14:05:11;1.90;;;1.80;;
5493;SDS011;2769;49.864;8.656;2023-05-07T14:07:39;2.27;;;1.80;;
5493;SDS011;2769;49.864;8.656;2023-05-07T14:10:08;1.73;;;1.63;;
5493;SDS011;2769;49.864;8.656;2023-05-07T14:12:37;2.47;;;2.27;;
5493;SDS011;2769;49.864;8.656;2023-05-07T14:15:07;2.07;;;1.97;;
5493;SDS011;2769;49.864;8.656;2023-05-07T14:17:36;1.80;;;1.70;;
5493;SDS011;2769;49.864;8.656;2023-05-07T14:20:05;2.10;;;2.00;;
5493;SDS011;2769;49.864;8.656;2023-05-07T14:22:33;2.23;;;2.00;;
5493;SDS011;2769;49.864;8.656;2023-05-07T14:25:01;1.90;;;1.80;;
5493;SDS011;2769;49.864;8.656;2023-05-07T14:27:35;2.20;;;1.80;;
5493;SDS011;2769;49.864;8.656;2023-05-07T14:30:03;1.90;;;1.80;;
5493;SDS011;2769;49.864;8.656;2023-05-07T14:32:33;5.80;;;1.97;;
5493;SDS011;2769;49.864;8.656;2023-05-07T14:35:01;1.87;;;1.77;;
5493;SDS011;2769;49.864;8.656;2023-05-07T14:37:29;2.07;;;1.97;;
5493;SDS011;2769;49.864;8.656;2023-05-07T14:39:57;2.67;;;2.20;;
5493;SDS011;2769;49.864;8.656;2023-05-07T14:42:24;3.03;;;2.27;;
5493;SDS011;2769;49.864;8.656;2023-05-07T14:44:52;2.40;;;2.30;;
5493;SDS011;2769;49.864;8.656;2023-05-07T14:47:20;4.47;;;1.90;;
5493;SDS011;2769;49.864;8.656;2023-05-07T14:49:50;2.53;;;2.33;;
5493;SDS011;2769;49.864;8.656;2023-05-07T14:52:19;2.37;;;2.20;;
5493;SDS011;2769;49.864;8.656;2023-05-07T14:54:47;2.80;;;2.47;;
5493;SDS011;2769;49.864;8.656;2023-05-07T14:57:15;2.53;;;2.07;;
5493;SDS011;2769;49.864;8.656;2023-05-07T14:59:44;2.53;;;2.33;;
5493;SDS011;2769;49.864;8.656;2023-05-07T15:02:13;4.33;;;2.53;;
5493;SDS011;2769;49.864;8.656;2023-05-07T15:04:41;3.10;;;2.80;;
5493;SDS011;2769;49.864;8.656;2023-05-07T15:07:14;2.43;;;2.33;;
5493;SDS011;2769;49.864;8.656;2023-05-07T15:09:43;2.37;;;2.17;;
5493;SDS011;2769;49.864;8.656;2023-05-07T15:12:11;3.90;;;3.13;;
5493;SDS011;2769;49.864;8.656;2023-05-07T15:14:39;3.70;;;2.73;;
5493;SDS011;2769;49.864;8.656;2023-05-07T15:17:07;2.67;;;2.43;;
5493;SDS011;2769;49.864;8.656;2023-05-07T15:19:35;3.10;;;2.30;;
5493;SDS011;2769;49.864;8.656;2023-05-07T15:22:03;2.53;;;2.40;;
5493;SDS011;2769;49.864;8.656;2023-05-07T15:24:33;2.30;;;2.20;;
5493;SDS011;2769;49.864;8.656;2023-05-07T15:27:01;2.70;;;2.60;;
5493;SDS011;2769;49.864;8.656;2023-05-07T15:29:30;2.43;;;2.33;;
5493;SDS011;2769;49.864;8.656;2023-05-07T15:31:59;4.97;;;2.33;;
5493;SDS011;2769;49.864;8.656;2023-05-07T15:34:27;3.13;;;2.70;;
5493;SDS011;2769;49.864;8.656;2023-05-07T15:36:56;4.60;;;2.90;;
5493;SDS011;2769;49.864;8.656;2023-05-07T15:39:24;4.80;;;2.90;;